KMWO

Middletown Regional / Hook Field Airport

Middletown, Ohio, USA
METAR KMWO 261315Z AUTO 21006KT 10SM SCT120 23/19 A2989 RMK AO2 T02320186
Observed Flight Rules
May-26 @ 13:15 UTC (22 minutes ago) Visual Flight Rules
Wind Visibility Clouds
210° at 6 knots 10 miles
  • Scattered at 12,000' AGL
Temperatures Readings
Current 23°C / 73°F
Dewpoint 19°C / 66°F
Humidity 78%
Altimeter 29.89" Hg
Pressure 1012 hPa
Elevation 198
METAR KMWO 261315Z AUTO 21006KT 10SM SCT120 23/19 A2989 RMK AO2 T02320186
Observed Flight Rules
May-26 @ 13:15 UTC
(22 minutes ago)
VFR
Wind Visibility
210° at 6 knots 10 miles
Clouds
  • Scattered at 12,000' AGL
Temperature Dewpoint
23°C / 73°F 19°C / 66°F
Humidity Altimeter Pressure
78% 29.89" Hg 1012 hPa